Aérodrome :
LOGIN :

S'inscrire | Disclaimer

   EN    FR    IT 

 










Légende :    VFR   VFR Marginal   IFR   IFR Intensif   IFR Très Intensif
Visi : 
Plafond : 
>= 8 km
>= 3000ft
5 à 8 km
1000 à 3000 ft
1500m à 5 km
500 à 1000 ft
800 à 1500m
200 à 500 ft
< 800m
< 200 ft
Symboles :   Orages  Brouillard  Fortes neiges  Fortes précipitations  Vent > 20 kt
SIGMETs :   Divers  Orages  Givrage  Turbulence  Onde Orograph.  Cendres Volcan.







- Altitude de l'aérodrome : 49 ft
- Code IATA : GLZ


EHGR - Gilze-Rijen Airbase

DERNIER METAR :
  • 251455Z AUTO 06007KT 010V110 9000 HZ FEW023 18/13 Q1020 BLU

METARs EXPIRÉS :
  • 251435Z AUTO 06007KT 020V110 8000 HZ FEW023 18/13 Q1020 BLU
  • 251425Z AUTO 07007KT 360V130 8000 HZ FEW022 18/13 Q1020 BLU
  • 251408Z AUTO 08007KT 050V150 7000 HZ NCD 19/13 Q1020 WHT
  • 251355Z AUTO 06008KT 350V120 7000 HZ NCD 18/13 Q1020 WHT 09007KT 7000 FEW020
  • 251331Z AUTO 07008KT 020V110 6000 HZ NCD 18/13 Q1020 WHT 09007KT 7000 FEW020
  • 251325Z AUTO 06009KT 360V120 6000 HZ FEW021 18/13 Q1020 WHT 09007KT 7000 FEW014
  • 251255Z AUTO 08008KT 050V130 7000 HZ NCD 17/13 Q1020 WHT 09007KT 7000 FEW014
  • 251225Z AUTO 07006KT 020V130 7000 HZ SCT016 17/13 Q1020 WHT 09007KT 7000 FEW014
  • 251159Z AUTO 08006KT 030V150 6000 BR FEW012 17/13 Q1020 WHT 09007KT 7000 FEW014

TAF TAF EHGR
Valide du 25 à 13h jusqu'au 26 à 01h UTC


251237Z 2513/2601 06005KT 9999 SCT020
BECMG 2521/2523 3500 BR MIFG
PROB40 2522/2601 VRB02KT 1200 BCFG
Pas de NOTAMs connus pour ce terrain.



MET'MAP, la Météo Aéronautique d'un coup d'oeil ! - Copyright ORBIFLY Décembre 2007 - Disclaimer

ORBIFLY MET'MAP TEAM :

Programmation & Développement : Alexandra Zaïnal
Conception & Développement : Baudouin d'Aumeries
Co-Programmation & Développement : Marc-Olivier Méhu
Soutien technique & logistique : Manuel Goepfert

Contact : metmap@orbifly.com




SOURCES & CREDITS :

   NOAA